createdAt,value
2024-02-13T00:00:11.907Z,3.90
2024-02-13T00:02:42.681Z,3.00
2024-02-13T00:05:10.961Z,4.70
2024-02-13T00:07:40.121Z,4.03
2024-02-13T00:10:11.753Z,3.70
2024-02-13T00:12:42.383Z,3.15
2024-02-13T00:15:15.419Z,3.08
2024-02-13T00:17:44.833Z,3.05
2024-02-13T00:20:13.315Z,2.95
2024-02-13T00:22:40.977Z,4.25
2024-02-13T00:25:09.293Z,3.70
2024-02-13T00:27:36.766Z,3.10
2024-02-13T00:30:04.864Z,3.17
2024-02-13T00:32:38.775Z,3.15
2024-02-13T00:35:09.982Z,5.03
2024-02-13T00:37:40.657Z,5.03
2024-02-13T00:40:11.449Z,2.95
2024-02-13T00:42:38.996Z,3.38
2024-02-13T00:45:08.425Z,6.50
2024-02-13T00:47:36.106Z,4.40
2024-02-13T00:50:03.978Z,4.60
2024-02-13T00:52:31.426Z,3.65
2024-02-13T00:54:59.396Z,2.40
2024-02-13T00:57:26.616Z,2.50
2024-02-13T00:59:54.127Z,3.45
2024-02-13T01:02:21.561Z,3.13
2024-02-13T01:04:49.348Z,3.47
2024-02-13T01:07:18.577Z,3.97
2024-02-13T01:09:45.988Z,3.75
2024-02-13T01:12:13.200Z,3.70
2024-02-13T01:14:40.503Z,5.03
2024-02-13T01:17:07.873Z,2.70
2024-02-13T01:19:35.140Z,4.00
2024-02-13T01:22:02.668Z,4.43
2024-02-13T01:24:30.537Z,2.53
2024-02-13T01:26:59.174Z,3.78
2024-02-13T01:29:26.733Z,3.80
2024-02-13T01:31:54.916Z,2.92
2024-02-13T01:34:22.798Z,3.65
2024-02-13T01:36:51.489Z,3.00
2024-02-13T01:39:19.312Z,5.15
2024-02-13T01:41:47.263Z,2.90
2024-02-13T01:44:14.527Z,2.83
2024-02-13T01:46:41.860Z,3.00
2024-02-13T01:49:10.496Z,7.03
2024-02-13T01:51:38.893Z,2.78
2024-02-13T01:54:11.158Z,2.92
2024-02-13T01:56:39.355Z,3.03
2024-02-13T01:59:07.073Z,4.75
2024-02-13T02:01:37.044Z,4.43
2024-02-13T02:04:07.143Z,5.13
2024-02-13T02:06:35.892Z,3.28
2024-02-13T02:09:06.392Z,3.58
2024-02-13T02:11:33.994Z,3.83
2024-02-13T02:14:01.801Z,4.25
2024-02-13T02:16:29.015Z,4.28
2024-02-13T02:18:59.104Z,4.82
2024-02-13T02:21:28.467Z,3.60
2024-02-13T02:23:55.990Z,3.20
2024-02-13T02:26:23.373Z,3.47
2024-02-13T02:28:50.631Z,3.00
2024-02-13T02:31:17.849Z,3.55
2024-02-13T02:33:47.838Z,3.25
2024-02-13T02:36:15.369Z,4.50
2024-02-13T02:38:42.958Z,4.65
2024-02-13T02:41:10.486Z,3.50
2024-02-13T02:43:39.017Z,3.45
2024-02-13T02:46:06.789Z,3.53
2024-02-13T02:48:34.293Z,3.10
2024-02-13T02:51:01.790Z,4.35
2024-02-13T02:53:29.309Z,3.42
2024-02-13T02:55:56.562Z,3.45
2024-02-13T02:58:23.752Z,3.63
2024-02-13T03:00:51.947Z,3.67
2024-02-13T03:03:22.398Z,3.88
2024-02-13T03:05:51.726Z,5.13
2024-02-13T03:10:46.721Z,4.18
2024-02-13T03:13:15.044Z,3.83
2024-02-13T03:15:42.420Z,3.20
2024-02-13T03:18:11.329Z,4.13
2024-02-13T03:20:38.731Z,3.10
2024-02-13T03:23:05.935Z,3.42
2024-02-13T03:25:33.147Z,4.15
2024-02-13T03:28:00.347Z,4.93
2024-02-13T03:30:27.550Z,3.92
2024-02-13T03:32:54.994Z,3.30
2024-02-13T03:35:22.377Z,3.60
2024-02-13T03:37:49.590Z,5.80
2024-02-13T03:40:19.778Z,4.25
2024-02-13T03:42:47.151Z,5.28
2024-02-13T03:45:14.517Z,2.92
2024-02-13T03:47:41.933Z,4.22
2024-02-13T03:50:09.540Z,3.35
2024-02-13T03:52:37.507Z,3.75
2024-02-13T03:55:07.035Z,4.95
2024-02-13T03:57:34.500Z,3.17
2024-02-13T04:00:01.972Z,3.67
2024-02-13T04:02:29.411Z,4.47
2024-02-13T04:04:56.678Z,3.17
2024-02-13T04:07:24.183Z,3.72
2024-02-13T04:09:51.487Z,3.65
2024-02-13T04:12:18.796Z,4.50
2024-02-13T04:14:45.981Z,3.85
2024-02-13T04:17:13.869Z,3.20
2024-02-13T04:19:41.288Z,3.20
2024-02-13T04:22:09.623Z,3.70
2024-02-13T04:24:36.829Z,3.80
2024-02-13T04:27:04.374Z,4.18
2024-02-13T04:29:33.232Z,4.05
2024-02-13T04:32:00.709Z,4.63
2024-02-13T04:34:29.937Z,4.90
2024-02-13T04:36:58.630Z,4.13
2024-02-13T04:39:25.960Z,4.00
2024-02-13T04:41:53.261Z,2.85
2024-02-13T04:44:21.330Z,4.53
2024-02-13T04:46:48.604Z,5.28
2024-02-13T04:49:16.009Z,2.90
2024-02-13T04:51:44.484Z,4.10
2024-02-13T04:54:11.777Z,3.90
2024-02-13T04:56:39.009Z,4.20
2024-02-13T04:59:08.809Z,4.82
2024-02-13T05:01:40.811Z,4.00
2024-02-13T05:04:17.639Z,3.40
2024-02-13T05:07:04.070Z,3.38
2024-02-13T05:09:31.869Z,3.00
2024-02-13T05:11:59.129Z,3.38
2024-02-13T05:14:26.584Z,5.65
2024-02-13T05:16:53.753Z,3.58
2024-02-13T05:19:22.430Z,4.43
2024-02-13T05:21:52.035Z,3.95
2024-02-13T05:24:19.553Z,4.63
2024-02-13T05:26:47.028Z,4.13
2024-02-13T05:29:14.872Z,3.50
2024-02-13T05:31:42.490Z,3.13
2024-02-13T05:34:10.935Z,3.15
2024-02-13T05:36:38.446Z,4.47
2024-02-13T05:39:05.727Z,4.80
2024-02-13T05:41:33.163Z,3.63
2024-02-13T05:44:04.132Z,10.52
2024-02-13T05:46:31.754Z,14.48
2024-02-13T05:49:01.496Z,6.85
2024-02-13T05:51:28.873Z,7.28
2024-02-13T05:53:56.452Z,12.50
2024-02-13T05:56:27.949Z,6.35
2024-02-13T05:58:58.805Z,5.45
2024-02-13T06:01:26.674Z,6.57
2024-02-13T06:03:57.142Z,4.13
2024-02-13T06:06:25.202Z,6.05
2024-02-13T06:08:54.725Z,3.85
2024-02-13T06:11:22.781Z,5.07
2024-02-13T06:13:50.791Z,4.85
2024-02-13T06:16:19.029Z,3.50
2024-02-13T06:18:50.324Z,4.00
2024-02-13T06:21:23.632Z,4.68
2024-02-13T06:23:52.914Z,5.13
2024-02-13T06:26:20.359Z,4.75
2024-02-13T06:28:47.637Z,7.18
2024-02-13T06:31:15.470Z,2.97
2024-02-13T06:33:42.864Z,5.03
2024-02-13T06:36:11.714Z,5.35
2024-02-13T06:38:39.018Z,4.18
2024-02-13T06:41:06.884Z,4.50
2024-02-13T06:43:34.845Z,4.57
2024-02-13T06:46:02.488Z,4.50
2024-02-13T06:48:29.848Z,5.05
2024-02-13T06:50:57.349Z,4.03
2024-02-13T06:53:25.035Z,5.93
2024-02-13T06:55:52.283Z,5.53
2024-02-13T06:58:19.707Z,3.28
2024-02-13T07:00:48.509Z,3.80
2024-02-13T07:03:15.802Z,4.85
2024-02-13T07:05:43.132Z,3.95
2024-02-13T07:08:10.546Z,4.65
2024-02-13T07:10:38.149Z,4.35
2024-02-13T07:13:05.521Z,3.97
2024-02-13T07:15:33.464Z,8.23
2024-02-13T07:18:02.018Z,5.00
2024-02-13T07:20:29.872Z,3.35
2024-02-13T07:22:57.848Z,5.75
2024-02-13T07:25:25.184Z,2.95
2024-02-13T07:27:53.991Z,3.83
2024-02-13T07:30:21.256Z,4.13
2024-02-13T07:32:48.745Z,4.72
2024-02-13T07:35:16.488Z,3.38
2024-02-13T07:37:44.214Z,5.85
2024-02-13T07:40:11.929Z,3.72
2024-02-13T07:42:39.081Z,5.38
2024-02-13T07:45:06.608Z,4.50
2024-02-13T07:47:35.108Z,3.33
2024-02-13T07:50:02.472Z,3.08
2024-02-13T07:52:29.666Z,3.80
2024-02-13T07:54:56.819Z,3.10
2024-02-13T07:57:24.051Z,2.70
2024-02-13T07:59:57.433Z,4.32
2024-02-13T08:02:25.320Z,3.17
2024-02-13T08:04:53.527Z,3.15
2024-02-13T08:07:20.886Z,4.85
2024-02-13T08:09:48.714Z,5.47
2024-02-13T08:12:16.862Z,2.92
2024-02-13T08:14:44.396Z,3.38
2024-02-13T08:17:12.375Z,3.47
2024-02-13T08:19:42.105Z,2.80
2024-02-13T08:22:09.791Z,2.58
2024-02-13T08:24:37.647Z,4.20
2024-02-13T08:27:07.123Z,3.60
2024-02-13T08:29:35.111Z,3.47
2024-02-13T08:32:04.869Z,3.72
2024-02-13T08:34:32.370Z,3.25
2024-02-13T08:37:00.300Z,3.75
2024-02-13T08:39:27.550Z,2.97
2024-02-13T08:41:56.088Z,4.40
2024-02-13T08:44:23.446Z,4.07
2024-02-13T08:46:50.728Z,3.58
2024-02-13T08:49:18.610Z,3.25
2024-02-13T08:51:46.651Z,3.08
2024-02-13T08:54:14.080Z,3.40
2024-02-13T08:56:41.768Z,3.88
2024-02-13T08:59:11.789Z,3.17
2024-02-13T09:01:39.068Z,3.00
2024-02-13T09:04:06.282Z,3.72
2024-02-13T09:06:34.240Z,3.42
2024-02-13T09:09:03.345Z,3.35
2024-02-13T09:11:33.148Z,4.85
2024-02-13T09:14:00.822Z,3.10
2024-02-13T09:16:28.132Z,2.53
2024-02-13T09:18:57.118Z,2.50
2024-02-13T09:21:25.237Z,3.03
2024-02-13T09:23:52.875Z,2.13
2024-02-13T09:26:20.395Z,2.55
2024-02-13T09:28:47.677Z,2.67
2024-02-13T09:31:15.229Z,3.22
2024-02-13T09:33:43.301Z,4.80
2024-02-13T09:36:13.040Z,5.05
2024-02-13T09:38:41.949Z,4.97
2024-02-13T09:41:11.231Z,3.63
2024-02-13T09:43:44.112Z,3.67
2024-02-13T09:46:13.367Z,2.58
2024-02-13T09:48:43.174Z,2.58
2024-02-13T09:51:10.832Z,2.70
2024-02-13T09:53:42.160Z,3.75
2024-02-13T09:56:15.599Z,3.78
2024-02-13T09:58:44.638Z,2.95
2024-02-13T10:01:12.097Z,3.33
2024-02-13T10:03:43.031Z,3.42
2024-02-13T10:06:13.913Z,2.60
2024-02-13T10:08:42.175Z,4.28
2024-02-13T10:11:10.285Z,3.10
2024-02-13T10:13:46.624Z,18.38
2024-02-13T10:16:27.177Z,3.28
2024-02-13T10:19:04.569Z,2.22
2024-02-13T10:21:32.028Z,2.70
2024-02-13T10:24:05.714Z,2.78
2024-02-13T10:26:34.023Z,3.30
2024-02-13T10:29:01.919Z,3.17
2024-02-13T10:31:35.764Z,3.90
2024-02-13T10:34:06.397Z,3.35
2024-02-13T10:36:34.098Z,2.38
2024-02-13T10:39:07.172Z,5.07
2024-02-13T10:41:40.812Z,4.47
2024-02-13T10:44:10.725Z,3.25
2024-02-13T10:46:40.686Z,2.92
2024-02-13T10:49:23.417Z,3.25
2024-02-13T10:51:51.706Z,3.85
2024-02-13T10:54:19.324Z,1.77
2024-02-13T10:56:47.425Z,2.42
2024-02-13T10:59:15.563Z,2.60
2024-02-13T11:01:44.731Z,4.05
2024-02-13T11:04:14.002Z,2.45
2024-02-13T11:06:41.331Z,2.28
2024-02-13T11:09:13.830Z,2.45
2024-02-13T11:11:45.958Z,3.15
2024-02-13T11:14:20.205Z,2.53
2024-02-13T11:16:53.534Z,2.67
2024-02-13T11:19:22.017Z,2.08
2024-02-13T11:21:53.074Z,2.58
2024-02-13T11:24:22.075Z,3.35
2024-02-13T11:26:49.389Z,2.30
2024-02-13T11:29:19.239Z,2.70
2024-02-13T11:31:59.778Z,2.78
2024-02-13T11:34:41.162Z,2.45
2024-02-13T11:37:38.251Z,2.67
2024-02-13T11:40:09.573Z,3.20
2024-02-13T11:42:38.311Z,1.80
2024-02-13T11:45:07.303Z,3.20
2024-02-13T11:47:35.102Z,1.45
2024-02-13T11:50:04.044Z,2.85
2024-02-13T11:52:34.647Z,2.33
2024-02-13T11:55:02.427Z,2.13
2024-02-13T11:57:29.893Z,2.10
2024-02-13T11:59:58.115Z,2.78
2024-02-13T12:02:26.441Z,3.22
2024-02-13T12:04:53.933Z,2.35
2024-02-13T12:07:23.149Z,2.33
2024-02-13T12:09:53.737Z,1.98
2024-02-13T12:12:21.788Z,2.92
2024-02-13T12:14:53.837Z,2.38
2024-02-13T12:17:22.898Z,2.35
2024-02-13T12:19:51.541Z,3.72
2024-02-13T12:22:20.767Z,2.35
2024-02-13T12:24:48.935Z,2.90
2024-02-13T12:27:17.706Z,2.65
2024-02-13T12:29:45.552Z,1.45
2024-02-13T12:32:21.589Z,2.13
2024-02-13T12:34:50.811Z,2.05
2024-02-13T12:37:22.567Z,2.63
2024-02-13T12:39:50.971Z,1.92
2024-02-13T12:42:21.003Z,4.88
2024-02-13T12:44:49.358Z,2.08
2024-02-13T12:47:18.897Z,1.58
2024-02-13T12:49:47.757Z,3.55
2024-02-13T12:52:18.909Z,2.47
2024-02-13T12:54:47.414Z,3.17
2024-02-13T12:57:16.001Z,3.17
2024-02-13T12:59:45.210Z,2.03
2024-02-13T13:02:17.592Z,3.35
2024-02-13T13:04:45.107Z,1.63
2024-02-13T13:07:14.397Z,2.60
2024-02-13T13:09:43.621Z,2.08
2024-02-13T13:12:13.672Z,1.75
2024-02-13T13:14:45.410Z,2.35
2024-02-13T13:17:13.988Z,2.58
2024-02-13T13:19:43.846Z,1.42
2024-02-13T13:22:13.366Z,3.33
2024-02-13T13:24:42.532Z,2.22
2024-02-13T13:27:11.115Z,3.08
2024-02-13T13:29:41.304Z,1.70
2024-02-13T13:32:10.676Z,2.00
2024-02-13T13:34:38.371Z,2.13
2024-02-13T13:37:06.017Z,2.00
2024-02-13T13:39:33.240Z,1.77
2024-02-13T13:42:10.213Z,3.38
2024-02-13T13:44:38.091Z,2.53
2024-02-13T13:47:05.346Z,1.67
2024-02-13T13:49:32.725Z,2.33
2024-02-13T13:52:00.044Z,1.90
2024-02-13T13:54:27.197Z,2.72
2024-02-13T13:56:54.451Z,1.63
2024-02-13T13:59:21.776Z,2.88
2024-02-13T14:01:51.220Z,2.13
2024-02-13T14:04:18.462Z,1.92
2024-02-13T14:06:46.776Z,4.18
2024-02-13T14:09:13.993Z,1.88
2024-02-13T14:11:41.271Z,3.30
2024-02-13T14:14:08.479Z,1.17
2024-02-13T14:16:35.804Z,2.47
2024-02-13T14:19:03.336Z,2.75
2024-02-13T14:21:30.690Z,2.60
2024-02-13T14:23:59.585Z,1.10
2024-02-13T14:28:54.157Z,1.73
2024-02-13T14:31:21.758Z,2.03
2024-02-13T14:33:50.034Z,2.10
2024-02-13T14:36:19.492Z,1.95
2024-02-13T14:38:46.821Z,1.08
2024-02-13T14:41:16.499Z,2.65
2024-02-13T14:43:43.875Z,3.60
2024-02-13T14:46:11.305Z,2.38
2024-02-13T14:48:38.838Z,1.50
2024-02-13T14:51:07.161Z,2.60
2024-02-13T14:53:34.632Z,2.47
2024-02-13T14:56:01.983Z,2.60
2024-02-13T14:58:38.236Z,2.65
2024-02-13T15:01:10.965Z,2.58
2024-02-13T15:03:38.580Z,1.85
2024-02-13T15:06:06.068Z,2.63
2024-02-13T15:08:35.750Z,2.38
2024-02-13T15:11:05.315Z,1.98
2024-02-13T15:13:35.193Z,2.42
2024-02-13T15:16:02.742Z,3.15
2024-02-13T15:18:30.007Z,0.95
2024-02-13T15:20:57.332Z,3.33
2024-02-13T15:23:28.471Z,1.27
2024-02-13T15:25:55.742Z,3.30
2024-02-13T15:28:22.952Z,2.17
2024-02-13T15:30:52.653Z,1.88
2024-02-13T15:33:22.632Z,1.38
2024-02-13T15:36:03.349Z,1.55
2024-02-13T15:38:49.517Z,1.90
2024-02-13T15:41:35.671Z,2.17
2024-02-13T15:44:21.447Z,1.27
2024-02-13T15:47:09.011Z,4.20
2024-02-13T15:49:39.071Z,3.17
2024-02-13T15:52:07.263Z,3.00
2024-02-13T15:54:35.084Z,3.53
2024-02-13T15:57:02.886Z,7.78
2024-02-13T15:59:30.788Z,13.43
2024-02-13T16:01:59.321Z,14.30
2024-02-13T16:04:26.920Z,17.75
2024-02-13T16:06:55.680Z,18.30
2024-02-13T16:09:23.065Z,16.05
2024-02-13T16:11:50.294Z,14.57
2024-02-13T16:14:18.671Z,15.38
2024-02-13T16:16:46.733Z,14.95
2024-02-13T16:19:14.353Z,16.13
2024-02-13T16:21:41.693Z,15.38
2024-02-13T16:24:09.381Z,15.63
2024-02-13T16:26:36.829Z,15.63
2024-02-13T16:29:04.187Z,11.68
2024-02-13T16:31:32.169Z,14.75
2024-02-13T16:34:00.423Z,17.30
2024-02-13T16:36:28.043Z,19.20
2024-02-13T16:38:55.629Z,15.80
2024-02-13T16:41:23.028Z,15.85
2024-02-13T16:43:50.525Z,15.07
2024-02-13T16:46:25.536Z,14.02
2024-02-13T16:48:54.843Z,18.35
2024-02-13T16:51:22.872Z,23.08
2024-02-13T16:53:50.205Z,14.70
2024-02-13T16:56:18.369Z,13.80
2024-02-13T16:58:45.917Z,13.85
2024-02-13T17:01:16.148Z,12.85
2024-02-13T17:03:47.862Z,17.98
2024-02-13T17:06:15.823Z,10.90
2024-02-13T17:08:43.723Z,17.98
2024-02-13T17:11:11.250Z,15.00
2024-02-13T17:13:38.569Z,13.60
2024-02-13T17:16:08.348Z,15.93
2024-02-13T17:18:35.802Z,13.07
2024-02-13T17:21:03.117Z,13.75
2024-02-13T17:23:30.484Z,15.00
2024-02-13T17:25:57.720Z,15.15
2024-02-13T17:28:24.907Z,12.48
2024-02-13T17:30:52.385Z,14.00
2024-02-13T17:33:20.052Z,12.77
2024-02-13T17:35:49.042Z,12.75
2024-02-13T17:38:16.699Z,13.52
2024-02-13T17:40:43.875Z,15.30
2024-02-13T17:43:15.674Z,11.98
2024-02-13T17:45:42.843Z,11.02
2024-02-13T17:48:10.975Z,12.85
2024-02-13T17:50:38.435Z,12.73
2024-02-13T17:53:07.141Z,11.18
2024-02-13T17:55:37.314Z,11.35
2024-02-13T17:58:04.912Z,12.45
2024-02-13T18:00:35.829Z,11.57
2024-02-13T18:03:03.616Z,9.48
2024-02-13T18:05:34.585Z,11.38
2024-02-13T18:08:04.512Z,13.05
2024-02-13T18:10:32.025Z,12.68
2024-02-13T18:12:59.843Z,10.73
2024-02-13T18:15:28.319Z,10.73
2024-02-13T18:17:57.100Z,11.70
2024-02-13T18:20:27.546Z,10.15
2024-02-13T18:22:55.858Z,9.50
2024-02-13T18:25:23.168Z,13.02
2024-02-13T18:27:50.421Z,9.93
2024-02-13T18:30:17.782Z,9.75
2024-02-13T18:32:45.107Z,11.60
2024-02-13T18:35:12.575Z,9.35
2024-02-13T18:37:41.811Z,11.57
2024-02-13T18:40:09.925Z,10.23
2024-02-13T18:42:37.155Z,10.27
2024-02-13T18:45:04.738Z,11.65
2024-02-13T18:47:32.202Z,13.48
2024-02-13T18:49:59.415Z,12.73
2024-02-13T18:52:27.850Z,9.75
2024-02-13T18:54:55.123Z,11.35
2024-02-13T18:57:22.361Z,9.52
2024-02-13T18:59:49.617Z,11.57
2024-02-13T19:02:20.508Z,10.25
2024-02-13T19:04:48.536Z,12.77
2024-02-13T19:07:16.356Z,9.43
2024-02-13T19:09:45.195Z,12.13
2024-02-13T19:12:12.386Z,10.88
2024-02-13T19:14:39.609Z,11.55
2024-02-13T19:17:07.575Z,9.05
2024-02-13T19:19:35.497Z,7.80
2024-02-13T19:22:02.984Z,8.02
2024-02-13T19:24:30.210Z,9.07
2024-02-13T19:27:00.398Z,7.60
2024-02-13T19:29:27.832Z,7.93
2024-02-13T19:31:55.041Z,9.00
2024-02-13T19:34:24.697Z,8.52
2024-02-13T19:36:53.229Z,9.38
2024-02-13T19:39:21.254Z,7.75
2024-02-13T19:41:48.546Z,7.85
2024-02-13T19:44:16.135Z,7.53
2024-02-13T19:46:44.083Z,10.93
2024-02-13T19:49:11.552Z,9.23
2024-02-13T19:51:39.418Z,7.70
2024-02-13T19:54:07.024Z,8.00
2024-02-13T19:56:34.369Z,9.07
2024-02-13T19:59:01.668Z,9.38
2024-02-13T20:01:28.898Z,11.23
2024-02-13T20:03:56.233Z,6.85
2024-02-13T20:06:24.456Z,6.93
2024-02-13T20:08:52.154Z,8.32
2024-02-13T20:11:19.621Z,9.02
2024-02-13T20:13:47.533Z,7.25
2024-02-13T20:16:14.914Z,7.68
2024-02-13T20:18:42.852Z,8.25
2024-02-13T20:21:10.567Z,7.05
2024-02-13T20:23:38.036Z,12.30
2024-02-13T20:26:05.482Z,9.00
2024-02-13T20:28:34.022Z,10.48
2024-02-13T20:31:01.290Z,14.77
2024-02-13T20:33:32.561Z,15.20
2024-02-13T20:36:04.227Z,11.98
2024-02-13T20:38:32.082Z,15.60
2024-02-13T20:41:00.439Z,11.93
2024-02-13T20:43:30.968Z,10.68
2024-02-13T20:45:59.479Z,14.77
2024-02-13T20:48:27.088Z,14.20
2024-02-13T20:50:54.634Z,13.45
2024-02-13T20:53:25.329Z,8.73
2024-02-13T20:55:57.223Z,10.00
2024-02-13T20:58:25.194Z,8.88
2024-02-13T21:00:53.013Z,14.07
2024-02-13T21:03:20.917Z,12.68
2024-02-13T21:05:48.378Z,12.95
2024-02-13T21:08:15.778Z,12.18
2024-02-13T21:10:43.113Z,9.57
2024-02-13T21:13:10.256Z,12.40
2024-02-13T21:15:37.540Z,11.40
2024-02-13T21:18:07.238Z,9.68
2024-02-13T21:20:42.927Z,9.63
2024-02-13T21:23:29.937Z,12.65
2024-02-13T21:25:58.202Z,8.40
2024-02-13T21:28:25.751Z,15.10
2024-02-13T21:30:53.162Z,10.73
2024-02-13T21:33:20.551Z,9.48
2024-02-13T21:35:48.006Z,7.65
2024-02-13T21:38:15.274Z,10.60
2024-02-13T21:40:42.840Z,8.77
2024-02-13T21:43:10.173Z,5.68
2024-02-13T21:45:37.631Z,6.85
2024-02-13T21:48:05.982Z,12.93
2024-02-13T21:50:34.001Z,7.45
2024-02-13T21:53:01.388Z,8.80
2024-02-13T21:55:28.704Z,8.25
2024-02-13T21:57:56.178Z,7.65
2024-02-13T22:00:23.479Z,8.43
2024-02-13T22:02:50.718Z,9.05
2024-02-13T22:05:18.595Z,6.78
2024-02-13T22:07:45.854Z,8.77
2024-02-13T22:10:13.118Z,11.95
2024-02-13T22:12:42.326Z,5.80
2024-02-13T22:15:11.713Z,7.03
2024-02-13T22:17:39.545Z,10.13
2024-02-13T22:20:11.509Z,9.90
2024-02-13T22:22:39.632Z,6.43
2024-02-13T22:25:07.047Z,5.50
2024-02-13T22:27:34.277Z,7.88
2024-02-13T22:30:01.819Z,4.88
2024-02-13T22:32:29.386Z,5.50
2024-02-13T22:34:58.476Z,6.28
2024-02-13T22:37:26.212Z,6.10
2024-02-13T22:39:53.548Z,5.72
2024-02-13T22:42:20.801Z,5.55
2024-02-13T22:44:48.055Z,7.45
2024-02-13T22:47:15.266Z,5.45
2024-02-13T22:49:42.470Z,10.02
2024-02-13T22:52:09.666Z,9.07
2024-02-13T22:54:36.872Z,7.55
2024-02-13T22:57:05.443Z,12.32
2024-02-13T22:59:34.874Z,5.22
2024-02-13T23:02:04.320Z,5.05
2024-02-13T23:04:31.749Z,4.25
2024-02-13T23:07:00.020Z,5.20
2024-02-13T23:09:27.316Z,4.28
2024-02-13T23:11:54.791Z,5.22
2024-02-13T23:14:22.258Z,6.53
2024-02-13T23:16:49.553Z,7.47
2024-02-13T23:19:16.840Z,5.22
2024-02-13T23:21:44.654Z,4.75
2024-02-13T23:24:12.307Z,4.82
2024-02-13T23:26:41.358Z,5.13
2024-02-13T23:31:38.573Z,5.45
2024-02-13T23:34:06.176Z,4.30
2024-02-13T23:36:33.950Z,6.45
2024-02-13T23:39:01.266Z,6.28
2024-02-13T23:41:28.769Z,5.60
2024-02-13T23:43:55.997Z,4.10
2024-02-13T23:46:23.131Z,4.25
2024-02-13T23:48:52.059Z,3.90
2024-02-13T23:53:46.866Z,5.25
2024-02-13T23:56:14.235Z,4.10
2024-02-13T23:58:41.580Z,6.13
